Latest Weather Observations for Hogan Island

IDV60801

Issued at 7:02 am EST Tuesday 4 August 2015 (issued every 30 minutes, with the page automatically refreshed every 10 minutes)

About weather observations | Map of weather stations | Latest weather observations for VIC | Other Formats
Station Details ID: 200838 Name: HOGAN ISLAND Lat: -39.22 Lon: 146.98 Height: 116.0 m
Data from the previous 72 hours. | See also: Recent months at Hogan Island
Date/Time
EST
Temp
°C
App
Temp
°C
Dew
Point
Rel
Hum
%
Delta-T
°C
Wind Press
QNH
hPa
Press
MSL
hPa
Rain
since 9 am
mm
Dir
 
Spd
km/h
Gust
km/h
Spd
kts
Gust
kts
04/07:00am 7.2 -2.5 3.8 79 1.5 WNW 44 50 24 27 1019.2 - 1.0
04/06:56am 7.0 -2.8 3.4 78 1.5 WNW 44 50 24 27 1019.2 - 1.0
04/06:32am 6.2 -4.2 1.9 74 1.7 W 46 65 25 35 1019.6 - 1.0
04/06:30am 6.4 -4.4 1.9 73 1.8 W 48 65 26 35 1019.6 - 1.0
04/06:00am 7.7 -3.1 2.0 67 2.4 W 48 56 26 30 1019.1 1019.3 1.0
04/05:40am 7.5 -3.5 3.0 73 1.9 W 50 59 27 32 1019.0 - 1.0
04/05:30am 7.0 -0.2 3.1 76 1.6 W 30 39 16 21 1019.3 - 1.0
04/05:00am 6.8 -0.4 3.1 77 1.6 WSW 30 39 16 21 1019.3 - 1.0
04/04:30am 6.5 -3.3 2.2 74 1.8 WSW 43 52 23 28 1019.3 - 1.0
04/04:29am 6.5 -3.3 2.0 73 1.8 WSW 43 52 23 28 1019.3 - 1.0
04/04:00am 7.1 -2.3 2.2 71 2.0 W 41 48 22 26 1019.2 - 1.0
04/03:30am 7.1 -2.3 2.4 72 2.0 W 41 50 22 27 1019.3 - 1.0
04/03:00am 7.1 -2.0 1.6 68 2.2 W 39 46 21 25 1019.6 1019.8 1.0
04/02:30am 6.8 -1.6 1.3 68 2.2 W 35 43 19 23 1019.6 - 1.0
04/02:12am 7.3 -1.3 0.3 61 2.8 WSW 35 54 19 29 1019.6 - 1.0
04/02:00am 7.2 -0.8 0.6 63 2.6 WSW 32 41 17 22 1019.7 - 1.0
04/01:30am 7.4 -2.1 1.7 67 2.3 W 41 52 22 28 1019.7 - 1.0
04/01:00am 6.7 -1.7 1.8 71 2.0 WSW 35 41 19 22 1020.0 - 1.0
04/12:42am 6.6 -2.2 1.5 70 2.1 WSW 37 61 20 33 1020.1 - 1.0
04/12:30am 7.0 -5.3 2.3 72 1.9 WSW 56 67 30 36 1020.1 - 1.0
04/12:00am 7.4 -2.7 1.3 65 2.5 WSW 44 52 24 28 1019.9 1020.0 1.0
 
Date/Time
EST
Temp
°C
App
Temp
°C
Dew
Point
Rel
Hum
%
Delta-T
°C
Wind Press
QNH
hPa
Press
MSL
hPa
Rain
since 9 am
mm
Dir
 
Spd
km/h
Gust
km/h
Spd
kts
Gust
kts
03/11:30pm 7.6 -1.9 1.5 65 2.5 WSW 41 52 22 28 1020.2 - 1.0
03/11:00pm 7.5 -1.3 1.6 66 2.4 WSW 37 48 20 26 1019.9 - 1.0
03/10:52pm 7.2 -1.9 1.7 68 2.3 WSW 39 57 21 31 1020.1 - 1.0
03/10:30pm 7.0 -3.8 2.1 71 2.0 WSW 48 63 26 34 1020.0 - 1.0
03/10:17pm 6.7 -3.3 2.0 72 1.9 W 44 59 24 32 1020.1 - 1.0
03/10:00pm 7.6 -3.1 0.3 60 2.9 SW 46 54 25 29 1020.2 - 1.0
03/09:30pm 7.7 -3.8 0.2 59 3.0 WSW 50 57 27 31 1020.0 - 1.0
03/09:00pm 7.8 -3.6 0.8 61 2.8 WSW 50 57 27 31 1019.9 1020.0 1.0
03/08:30pm 7.7 -4.1 0.2 59 3.0 WSW 52 65 28 35 1019.3 - 1.0
03/08:00pm 7.5 -5.4 -0.7 56 3.2 WSW 57 69 31 37 1019.0 - 1.0
03/07:30pm 7.5 -6.5 -0.2 58 3.0 WSW 63 74 34 40 1018.8 - 1.0
03/07:00pm 7.7 -5.1 0.2 59 3.0 WSW 57 70 31 38 1018.4 - 1.0
03/06:51pm 7.5 -6.0 0.3 60 2.9 WSW 61 80 33 43 1018.3 - 1.0
03/06:30pm 7.4 -6.1 0.6 62 2.7 WSW 61 74 33 40 1017.7 - 1.0
03/06:00pm 7.2 -6.1 1.7 68 2.2 WSW 61 82 33 44 1017.3 1017.4 1.0
03/05:58pm 7.5 -6.3 1.1 64 2.6 WSW 63 82 34 44 1017.1 - 1.0
03/05:30pm 7.3 -8.0 -1.4 54 3.3 WSW 69 80 37 43 1016.3 - 1.0
03/05:08pm 6.6 -7.9 1.3 69 2.1 WSW 67 87 36 47 1016.1 - 1.0
03/05:00pm 7.5 -6.3 1.1 64 2.6 W 63 72 34 39 1016.0 - 1.0
03/04:30pm 7.5 -7.1 0.9 63 2.7 WSW 67 80 36 43 1015.9 - 1.0
03/04:00pm 7.9 -7.6 0.9 61 2.8 WSW 72 85 39 46 1015.4 - 1.0
03/03:30pm 7.9 -7.3 0.4 59 3.0 WSW 70 82 38 44 1015.0 - 1.0
03/03:00pm 7.5 -7.6 0.9 63 2.7 WSW 70 87 38 47 1014.6 1014.7 1.0
03/02:30pm 7.9 -7.3 0.6 60 2.9 WSW 70 82 38 44 1014.0 - 1.0
03/02:00pm 8.5 -6.5 2.1 64 2.7 WSW 70 87 38 47 1013.4 - 1.0
03/01:40pm 7.2 -6.0 2.5 72 2.0 WSW 61 82 33 44 1013.1 - 1.0
03/01:30pm 6.6 -7.3 2.7 76 1.6 WSW 65 78 35 42 1013.4 - 1.0
03/01:20pm 5.2 -9.0 1.0 74 1.7 SW 65 83 35 45 1013.4 - 1.0
03/01:18pm 5.2 -10.3 0.8 73 1.7 SW 72 83 39 45 1013.4 - 1.0
03/01:07pm 7.1 -9.5 1.6 68 2.2 W 78 104 42 56 1012.9 - 1.0
03/01:00pm 5.7 -12.3 1.1 72 1.8 W 85 113 46 61 1012.1 - 1.0
03/12:49pm 7.6 -9.2 0.3 60 2.9 WSW 78 96 42 52 1012.7 - 1.0
03/12:42pm 7.9 -10.3 -0.6 55 3.3 WSW 85 96 46 52 1012.4 - 1.0
03/12:33pm 7.9 -5.9 3.0 71 2.1 W 65 83 35 45 1012.6 - 1.0
03/12:30pm 7.1 -7.2 2.6 73 1.9 W 67 74 36 40 1012.7 - 1.0
03/12:15pm 5.7 -8.4 1.6 75 1.6 W 65 85 35 46 1012.7 - 1.0
03/12:03pm 5.7 -12.6 1.1 72 1.8 WSW 87 106 47 57 1012.7 - 1.0
03/12:00pm 6.1 -12.6 1.4 72 1.9 WSW 89 106 48 57 1012.4 1012.5 1.0
03/11:30am 5.2 -14.0 0.4 71 1.9 WSW 91 109 49 59 1011.3 - 1.0
03/11:00am 6.7 -10.7 2.0 72 1.9 WSW 83 106 45 57 1011.0 - 1.0
03/10:30am 3.9 -13.1 1.4 84 1.0 WSW 80 98 43 53 1011.0 - 0.8
03/10:00am 6.2 -10.2 2.7 78 1.5 W 78 96 42 52 1009.9 - 0.0
03/09:56am 6.4 -9.8 3.4 81 1.3 W 78 96 42 52 1009.8 - 0.0
03/09:43am 4.8 -12.1 2.0 82 1.1 WSW 80 120 43 65 1009.9 - 0.0
03/09:40am 4.2 -17.0 0.9 79 1.3 WSW 102 120 55 65 1009.8 - 0.0
03/09:37am 5.3 -16.8 1.1 74 1.7 WSW 107 120 58 65 1009.0 - 0.0
03/09:32am 6.4 -11.4 1.9 73 1.8 W 85 109 46 59 1009.3 - 0.0
03/09:30am 6.2 -12.0 1.9 74 1.7 W 87 98 47 53 1009.5 - 0.0
03/09:14am 5.3 -11.8 2.8 84 1.0 WSW 82 100 44 54 1009.3 - 0.0
03/09:03am 5.1 -10.5 3.0 86 0.9 WSW 74 117 40 63 1009.5 - 0.0
03/09:00am 4.6 -15.3 2.3 85 0.9 WSW 96 119 52 64 1009.3 1009.4 16.0
03/08:58am 4.4 -16.3 1.9 84 1.0 WSW 100 119 54 64 1009.0 - 16.0
03/08:54am 5.2 -16.5 2.6 83 1.1 WSW 106 119 57 64 1008.5 - 16.0
03/08:53am 5.3 -11.8 2.7 83 1.1 WSW 82 119 44 64 1008.6 - 16.0
03/08:30am 4.7 -12.3 3.4 91 0.5 W 82 96 44 52 1008.8 - 15.8
03/08:00am 3.6 -12.9 2.1 90 0.6 WSW 78 130 42 70 1008.3 - 15.8
03/07:58am 3.4 -13.5 1.8 89 0.6 WSW 80 130 43 70 1008.3 - 15.8
03/07:53am 3.2 -19.0 0.9 85 0.9 WSW 107 130 58 70 1007.6 - 15.6
03/07:52am 3.7 -12.6 1.1 83 1.0 WSW 76 130 41 70 1007.6 - 15.4
03/07:51am 4.9 -10.0 2.3 83 1.1 WSW 70 106 38 57 1008.1 - 15.4
03/07:33am 5.7 -12.6 1.4 74 1.7 WSW 87 106 47 57 1007.4 - 15.2
03/07:30am 6.0 -13.1 1.3 72 1.9 WSW 91 106 49 57 1007.0 - 15.2
03/07:00am 6.4 -11.5 3.6 82 1.2 WSW 87 109 47 59 1006.3 - 15.2
03/06:30am 6.5 -12.1 4.0 84 1.1 WSW 91 113 49 61 1005.1 - 15.0
03/06:00am 7.6 -10.3 5.7 88 0.9 W 89 107 48 58 1004.4 1004.5 15.0
03/05:30am 6.4 -11.9 5.7 95 0.3 W 91 132 49 71 1004.1 - 15.0
03/05:26am 6.0 -16.5 5.3 95 0.3 W 113 132 61 71 1003.6 - 15.0
03/05:24am 5.9 -17.8 5.3 96 0.3 W 119 132 64 71 1003.1 - 15.0
03/05:22am 6.3 -12.9 5.7 96 0.3 W 96 132 52 71 1003.6 - 15.0
03/05:04am 6.0 -11.2 5.4 96 0.3 WSW 85 104 46 56 1004.5 - 15.0
03/05:00am 5.8 -11.8 5.2 96 0.3 WSW 87 104 47 56 1004.2 - 15.0
03/04:32am 6.0 -13.0 5.6 97 0.2 W 95 117 51 63 1003.4 - 14.8
03/04:30am 5.8 -13.5 5.4 97 0.2 W 96 122 52 66 1003.5 - 14.8
03/04:26am 5.7 -14.0 5.3 97 0.2 W 98 148 53 80 1003.4 - 14.8
03/04:00am 6.8 -9.6 6.4 97 0.2 W 82 98 44 53 1002.9 - 14.2
03/03:56am 7.0 -8.2 6.6 97 0.2 W 76 104 41 56 1003.2 - 14.2
03/03:30am 6.3 -13.3 5.7 96 0.3 W 98 128 53 69 1002.8 - 13.2
03/03:23am 5.9 -13.2 5.3 96 0.3 W 95 128 51 69 1002.1 - 12.8
03/03:00am 6.9 -9.7 6.3 96 0.3 W 83 98 45 53 1002.8 1002.8 11.4
03/02:30am 6.9 -11.6 6.2 95 0.3 W 93 111 50 60 1003.0 - 11.0
03/02:01am 7.8 -10.6 6.9 94 0.4 WNW 93 117 50 63 1002.3 - 10.2
03/02:00am 7.8 -10.6 6.9 94 0.4 WNW 93 107 50 58 1002.6 - 10.2
03/01:30am 6.9 -12.3 6.0 94 0.4 W 96 124 52 67 1003.2 - 9.8
03/01:00am 7.0 -13.3 6.1 94 0.4 W 102 120 55 65 1002.3 - 9.0
03/12:58am 6.6 -13.8 5.6 93 0.4 W 102 120 55 65 1002.4 - 9.0
03/12:56am 6.7 -13.3 5.7 93 0.4 W 100 115 54 62 1002.6 - 8.8
03/12:51am 6.9 -9.6 5.8 93 0.5 WNW 82 115 44 62 1002.9 - 8.6
03/12:32am 7.4 -8.3 6.0 91 0.6 WNW 78 96 42 52 1003.4 - 7.6
03/12:30am 7.3 -8.8 5.9 91 0.6 WNW 80 96 43 52 1003.3 - 7.2
03/12:00am 8.7 -8.8 5.8 82 1.3 WNW 87 107 47 58 1003.2 1003.2 5.2
 
Date/Time
EST
Temp
°C
App
Temp
°C
Dew
Point
Rel
Hum
%
Delta-T
°C
Wind Press
QNH
hPa
Press
MSL
hPa
Rain
since 9 am
mm
Dir
 
Spd
km/h
Gust
km/h
Spd
kts
Gust
kts
02/11:57pm 8.9 -9.0 5.8 81 1.4 WNW 89 107 48 58 1003.1 - 5.2
02/11:30pm 8.7 -7.9 6.5 86 1.0 WNW 83 96 45 52 1003.5 - 5.2
02/11:04pm 8.8 -6.3 7.1 89 0.8 WNW 76 96 41 52 1003.6 - 4.8
02/11:00pm 8.6 -5.8 7.1 90 0.7 WNW 72 83 39 45 1004.2 - 4.8
02/10:34pm 6.9 -13.1 5.7 92 0.5 W 100 137 54 74 1003.4 - 4.8
02/10:30pm 6.7 -17.0 5.2 90 0.7 W 119 137 64 74 1003.0 - 4.6
02/10:29pm 6.6 -17.2 4.9 89 0.7 W 119 137 64 74 1002.7 - 4.4
02/10:27pm 6.6 -17.2 4.6 87 0.9 W 119 132 64 71 1002.9 - 4.4
02/10:26pm 6.7 -11.5 4.0 83 1.2 WNW 89 126 48 68 1002.9 - 4.4
02/10:00pm 9.6 -7.4 4.6 71 2.2 WNW 83 106 45 57 1004.2 - 4.2
02/09:30pm 9.5 -7.1 5.7 77 1.7 WNW 82 98 44 53 1004.2 - 4.2
02/09:00pm 8.7 -7.7 6.3 85 1.1 W 82 95 44 51 1004.7 1004.8 4.0
02/08:58pm 8.6 -7.8 6.4 86 1.0 W 82 100 44 54 1004.9 - 4.0
02/08:30pm 9.1 -3.7 6.2 82 1.3 W 63 76 34 41 1005.3 - 3.4
02/08:00pm 9.0 -6.3 6.1 82 1.3 WNW 76 89 41 48 1005.4 - 3.4
02/07:30pm 8.3 -8.3 6.3 87 0.9 W 83 104 45 56 1005.4 - 3.2
02/07:03pm 7.8 -7.5 6.3 90 0.7 W 76 95 41 51 1005.5 - 3.2
02/07:00pm 8.0 -8.4 6.5 90 0.7 W 82 96 44 52 1005.4 - 3.2
02/06:30pm 7.5 -5.8 5.6 88 0.9 W 65 91 35 49 1005.2 - 2.6
02/06:00pm 8.2 -6.1 5.8 85 1.1 W 70 80 38 43 1004.8 1004.9 2.2
02/05:30pm 8.2 -6.0 6.2 87 0.9 W 70 85 38 46 1004.7 - 2.2
02/05:00pm 8.1 -7.1 6.9 92 0.6 W 76 85 41 46 1004.7 - 2.0
02/04:30pm 8.0 -5.4 7.1 94 0.4 W 67 78 36 42 1004.6 - 2.0
02/04:00pm 8.0 -6.4 6.9 93 0.5 W 72 106 39 57 1004.6 - 1.8
02/03:59pm 7.9 -6.9 6.8 93 0.5 W 74 106 40 57 1004.5 - 1.8
02/03:54pm 7.5 -9.1 6.3 92 0.5 W 83 128 45 69 1004.1 - 1.0
02/03:30pm 11.2 -6.9 4.9 65 2.9 WNW 89 107 48 58 1002.4 - 0.0
02/03:00pm 11.3 -5.6 5.0 65 2.9 WNW 83 98 45 53 1002.2 1002.2 0.0
02/02:31pm 11.0 -5.6 5.3 68 2.6 WNW 82 100 44 54 1003.2 - 0.0
02/02:30pm 11.0 -5.9 5.1 67 2.7 WNW 83 100 45 54 1003.0 - 0.0
02/02:00pm 10.8 -6.0 4.3 64 2.9 WNW 82 95 44 51 1003.4 - 0.0
02/01:30pm 10.8 -4.2 3.8 62 3.1 WNW 72 83 39 45 1003.9 - 0.0
02/01:00pm 10.8 -5.9 4.9 67 2.7 WNW 82 93 44 50 1004.2 - 0.0
02/12:54pm 10.7 -6.1 4.4 65 2.8 WNW 82 93 44 50 1004.0 - 0.0
02/12:30pm 10.3 -2.1 4.5 67 2.6 WNW 59 70 32 38 1005.5 - 0.0
02/12:00pm 10.1 -4.4 4.5 68 2.5 WNW 70 82 38 44 1006.0 1006.1 0.0
02/11:32am 9.7 -1.9 3.7 66 2.6 NW 54 72 29 39 1007.2 - 0.0
02/11:30am 10.2 -0.1 4.8 69 2.4 NW 48 69 26 37 1007.4 - 0.0
02/11:00am 9.3 -5.4 3.5 67 2.5 WNW 70 82 38 44 1007.3 - 0.0
02/10:30am 9.1 -5.9 3.9 70 2.3 WNW 72 82 39 44 1007.5 - 0.0
02/10:00am 8.8 -5.0 3.4 69 2.3 WNW 65 76 35 41 1008.0 - 0.0
02/09:30am 8.4 -5.4 3.5 71 2.1 WNW 65 76 35 41 1008.3 - 0.0
02/09:00am 8.2 -5.6 3.1 70 2.2 WNW 65 74 35 40 1008.4 1008.5 0.0
02/08:30am 8.3 -3.7 3.6 72 2.0 WNW 56 69 30 37 1009.1 - 0.0
02/08:00am 8.3 -4.6 3.8 73 2.0 WNW 61 72 33 39 1009.5 - 0.0
02/07:30am 8.3 -4.2 3.9 74 1.9 WNW 59 67 32 36 1009.5 - 0.0
02/07:00am 8.4 -2.5 3.8 73 2.0 WNW 50 61 27 33 1009.6 - 0.0
02/06:30am 8.5 -2.0 3.9 73 2.0 WNW 48 56 26 30 1009.8 - 0.0
02/06:00am 8.5 -1.6 3.9 73 2.0 WNW 46 54 25 29 1009.8 1009.9 0.0
02/05:30am 8.6 -1.5 4.0 73 2.0 WNW 46 56 25 30 1010.0 - 0.0
02/05:00am 8.6 -2.7 3.6 71 2.2 WNW 52 61 28 33 1010.0 - 0.0
02/04:30am 8.6 -2.6 4.0 73 2.0 WNW 52 59 28 32 1010.3 - 0.0
02/04:00am 8.6 -0.8 4.4 75 1.9 WNW 43 54 23 29 1011.0 - 0.0
02/03:30am 8.9 -1.1 4.5 74 2.0 WNW 46 57 25 31 1011.4 - 0.0
02/03:00am 8.9 -1.1 4.5 74 2.0 WNW 46 52 25 28 1011.7 1011.8 0.0
02/02:30am 9.0 -0.6 4.6 74 2.0 WNW 44 48 24 26 1012.0 - 0.0
02/02:00am 8.9 -0.7 4.5 74 2.0 WNW 44 50 24 27 1012.2 - 0.0
02/01:30am 9.0 -0.4 4.2 72 2.1 WNW 43 52 23 28 1012.6 - 0.0
02/01:00am 8.9 -0.1 4.3 73 2.0 WNW 41 46 22 25 1012.8 - 0.0
02/12:30am 8.9 -0.6 3.9 71 2.2 WNW 43 48 23 26 1012.9 - 0.0
02/12:00am 8.8 -0.4 3.6 70 2.3 WNW 41 48 22 26 1013.2 1013.3 0.0
 
Date/Time
EST
Temp
°C
App
Temp
°C
Dew
Point
Rel
Hum
%
Delta-T
°C
Wind Press
QNH
hPa
Press
MSL
hPa
Rain
since 9 am
mm
Dir
 
Spd
km/h
Gust
km/h
Spd
kts
Gust
kts
01/11:30pm 9.1 -1.2 2.9 65 2.7 WNW 46 57 25 31 1013.3 - 0.0
01/11:00pm 9.0 -1.0 4.2 72 2.1 WNW 46 57 25 31 1013.2 - 0.0
01/10:30pm 8.8 -2.3 4.4 74 1.9 WNW 52 57 28 31 1013.3 - 0.0
01/10:00pm 9.2 0.6 4.4 72 2.1 WNW 39 48 21 26 1013.8 - 0.0
01/09:30pm 9.2 0.1 3.8 69 2.4 WNW 41 50 22 27 1013.8 - 0.0
01/09:00pm 9.2 0.1 3.8 69 2.4 WNW 41 50 22 27 1013.8 1013.9 0.0
01/08:30pm 9.2 0.9 4.0 70 2.3 WNW 37 46 20 25 1013.9 - 0.0
01/08:00pm 9.4 0.3 4.2 70 2.3 WNW 41 56 22 30 1014.0 - 0.0
01/07:30pm 9.1 1.3 4.7 74 2.0 WNW 35 44 19 24 1013.8 - 0.0
01/07:00pm 8.5 -0.2 4.3 75 1.9 WNW 39 46 21 25 1013.8 - 0.0
01/06:33pm 9.4 -0.7 3.8 68 2.5 W 46 67 25 36 1013.2 - 0.0
01/06:30pm 9.4 -0.4 3.4 66 2.6 W 44 52 24 28 1013.5 - 0.0
01/06:00pm 9.4 -1.4 1.8 59 3.2 W 48 57 26 31 1013.1 1013.2 0.0
01/05:30pm 9.2 -2.0 1.6 59 3.2 W 50 61 27 33 1012.3 - 0.0
01/05:00pm 9.3 -1.4 2.4 62 2.9 W 48 59 26 32 1012.1 - 0.0
01/04:30pm 9.4 -1.3 2.3 61 3.0 W 48 56 26 30 1012.2 - 0.0
01/04:00pm 9.3 -2.3 3.9 69 2.4 W 54 67 29 36 1011.9 - 0.0
01/03:30pm 9.8 -2.1 2.4 60 3.2 W 54 63 29 34 1011.4 - 0.0
01/03:00pm 10.3 -1.6 2.2 57 3.5 W 54 63 29 34 1011.3 1011.4 0.0
01/02:30pm 10.7 -0.4 2.3 56 3.6 W 50 59 27 32 1011.5 - 0.0
01/02:00pm 10.5 -2.0 2.1 56 3.6 W 57 67 31 36 1010.9 - 0.0
01/01:30pm 10.5 -3.6 1.3 53 3.9 WSW 65 74 35 40 1010.3 - 0.0
01/01:00pm 10.6 -4.7 2.2 56 3.6 WSW 72 85 39 46 1009.6 - 0.0
01/12:53pm 10.3 -4.1 1.9 56 3.6 W 67 85 36 46 1009.6 - 0.0
01/12:30pm 11.0 -3.2 3.3 59 3.4 W 67 78 36 42 1009.8 - 0.0
01/12:22pm 10.7 -3.1 3.5 61 3.2 W 65 83 35 45 1010.1 - 0.0
01/12:00pm 10.4 -3.8 3.4 62 3.1 W 67 76 36 41 1010.0 1010.1 0.0
01/11:30am 9.8 -4.7 3.8 66 2.6 W 69 80 37 43 1009.7 - 0.0
01/11:00am 8.9 -2.5 6.7 86 1.0 W 56 67 30 36 1010.0 - 0.0
01/10:30am 9.1 -5.0 5.7 79 1.6 W 69 91 37 49 1009.3 - 0.0
01/10:21am 9.0 -4.6 6.1 82 1.3 W 67 91 36 49 1009.2 - 0.0
01/10:00am 8.9 -4.9 6.9 87 0.9 W 69 78 37 42 1008.7 - 0.0
01/09:30am 8.5 -5.4 7.3 92 0.6 WSW 70 83 38 45 1008.2 - 0.0
01/09:00am 8.8 -4.1 7.6 92 0.6 W 65 80 35 43 1007.6 1007.7 1.0
01/08:30am 9.4 -5.1 8.0 91 0.7 W 74 91 40 49 1006.8 - 0.8
01/08:00am 11.2 -5.6 8.9 86 1.1 WNW 87 98 47 53 1004.5 - 0.6
01/07:30am 11.9 -4.9 8.9 82 1.5 WNW 87 98 47 53 1004.2 - 0.6
01/07:04am 11.8 1.2 8.6 81 1.6 NW 54 72 29 39 1004.4 - 0.6

Other Formats:

Comma delimited format used in spreadsheet applications
http://www.bom.gov.au/fwo/IDV60801/IDV60801.94949.axf

JavaScript Object Notation format (JSON) in row-major order
http://www.bom.gov.au/fwo/IDV60801/IDV60801.94949.json